Time;durP1;ratioP1;P1;durP2;ratioP2;P2;SDS_P1;SDS_P2;PMS_P1;PMS_P2;Temp;Humidity;BMP_temperature;BMP_pressure;BME280_temperature;BME280_humidity;BME280_pressure;Samples;Min_cycle;Max_cycle;Signal;HPM_P1;HPM_P2
2024/02/15 05:10:34;;;;;;;0.30;0.30;;;10.20;99.90;;;;;;4956374;29;20500;-71
2024/02/15 05:13:01;;;;;;;0.40;0.40;;;10.30;99.90;;;;;;4957793;29;20409;-71
2024/02/15 05:15:26;;;;;;;0.30;0.20;;;10.30;99.90;;;;;;4957208;29;20204;-72
2024/02/15 05:17:53;;;;;;;0.30;0.30;;;10.30;99.90;;;;;;4957631;29;20960;-71
2024/02/15 05:20:20;;;;;;;0.30;0.30;;;10.30;99.90;;;;;;4957363;29;20203;-72
2024/02/15 05:22:46;;;;;;;0.30;0.30;;;10.40;99.90;;;;;;4940118;29;20186;-72
2024/02/15 05:25:12;;;;;;;0.30;0.30;;;10.40;99.90;;;;;;4956918;29;20385;-72
2024/02/15 05:27:38;;;;;;;0.30;0.30;;;10.50;99.90;;;;;;4957516;29;20231;-72
2024/02/15 05:30:08;;;;;;;0.30;0.30;;;10.50;99.90;;;;;;4957109;29;20419;-72
2024/02/15 05:32:41;;;;;;;0.37;0.37;;;10.60;99.90;;;;;;4939869;29;20437;-72
2024/02/15 05:35:10;;;;;;;0.30;0.30;;;10.60;99.90;;;;;;4939184;29;20933;-72
2024/02/15 05:37:35;;;;;;;1.17;1.07;;;10.60;99.90;;;;;;4956631;29;20410;-72
2024/02/15 05:40:01;;;;;;;0.30;0.30;;;10.70;99.90;;;;;;4957148;29;20403;-72
2024/02/15 05:42:26;;;;;;;0.30;0.20;;;10.70;99.90;;;;;;4940267;29;20198;-72
2024/02/15 05:44:52;;;;;;;0.30;0.30;;;10.80;99.90;;;;;;4956814;28;20176;-72
2024/02/15 05:47:18;;;;;;;0.30;0.30;;;10.80;99.90;;;;;;4939642;29;20223;-71
2024/02/15 05:49:44;;;;;;;0.30;0.30;;;10.80;99.90;;;;;;4957172;29;20186;-72
2024/02/15 05:52:11;;;;;;;0.30;0.30;;;10.90;99.90;;;;;;4957322;29;20181;-72
2024/02/15 05:54:37;;;;;;;0.30;0.30;;;10.90;99.90;;;;;;4957173;29;20724;-72
2024/02/15 05:57:02;;;;;;;0.30;0.30;;;11.00;99.90;;;;;;4964005;29;20183;-73
2024/02/15 05:59:28;;;;;;;0.30;0.20;;;11.10;99.90;;;;;;4956983;29;20190;-72
2024/02/15 06:01:54;;;;;;;0.40;0.40;;;11.10;99.90;;;;;;4965280;29;20203;-73
2024/02/15 06:04:20;;;;;;;0.30;0.30;;;11.20;99.90;;;;;;4940223;29;20435;-72
2024/02/15 06:06:48;;;;;;;0.30;0.30;;;11.20;99.90;;;;;;4940867;29;20610;-72
2024/02/15 06:09:14;;;;;;;0.30;0.30;;;11.20;99.90;;;;;;4957039;28;20223;-71
2024/02/15 06:11:40;;;;;;;0.30;0.30;;;11.20;99.90;;;;;;4957326;29;20509;-71
2024/02/15 06:14:06;;;;;;;0.30;0.30;;;11.30;99.90;;;;;;4958853;29;20657;-71
2024/02/15 06:16:33;;;;;;;0.30;0.30;;;11.30;99.90;;;;;;4958037;29;20904;-70
2024/02/15 06:18:59;;;;;;;0.30;0.30;;;11.30;99.90;;;;;;4940581;29;20438;-73
2024/02/15 06:21:24;;;;;;;0.30;0.30;;;11.30;99.90;;;;;;4939837;29;20473;-70
2024/02/15 06:23:50;;;;;;;0.30;0.30;;;11.30;99.90;;;;;;4957277;29;20414;-75
2024/02/15 06:26:16;;;;;;;0.40;0.40;;;11.30;99.90;;;;;;4953867;29;20208;-71
2024/02/15 06:39:41;;;;;;;1.43;1.33;;;11.40;99.90;;;;;;4957548;29;20415;-65
2024/02/15 06:42:09;;;;;;;0.30;0.30;;;11.40;99.90;;;;;;4957114;29;20585;-67
2024/02/15 06:44:35;;;;;;;0.30;0.30;;;11.50;99.90;;;;;;4971984;28;20432;-67
2024/02/15 06:47:01;;;;;;;0.30;0.30;;;11.50;99.90;;;;;;4957696;28;20972;-68
2024/02/15 06:49:26;;;;;;;0.30;0.20;;;11.60;99.90;;;;;;4974954;28;20450;-70
2024/02/15 06:51:52;;;;;;;0.30;0.30;;;11.60;99.90;;;;;;4956403;28;20190;-66
2024/02/15 06:54:18;;;;;;;0.30;0.30;;;11.60;99.90;;;;;;4955765;29;20185;-65
2024/02/15 06:56:46;;;;;;;0.30;0.30;;;11.60;99.90;;;;;;4955452;28;20822;-66
2024/02/15 06:59:16;;;;;;;0.30;0.30;;;11.60;99.90;;;;;;4950797;28;20179;-67
2024/02/15 07:01:42;;;;;;;0.40;0.40;;;11.60;99.90;;;;;;4955353;29;20466;-67
2024/02/15 07:04:10;;;;;;;0.53;0.53;;;11.60;99.90;;;;;;4947405;29;20430;-67
2024/02/15 07:06:37;;;;;;;1.23;1.10;;;11.60;99.90;;;;;;4935399;29;20613;-68
2024/02/15 07:09:04;;;;;;;0.30;0.20;;;11.70;99.90;;;;;;4935938;29;20526;-67
2024/02/15 07:11:30;;;;;;;0.30;0.30;;;11.70;99.90;;;;;;4935715;29;20776;-67
2024/02/15 07:13:56;;;;;;;0.30;0.30;;;11.80;99.90;;;;;;4940582;29;20431;-67
2024/02/15 07:16:22;;;;;;;0.30;0.30;;;11.80;99.90;;;;;;4954193;28;20448;-67
2024/02/15 07:18:47;;;;;;;0.40;0.37;;;11.90;99.90;;;;;;4951847;29;20534;-67
2024/02/15 07:21:16;;;;;;;0.30;0.20;;;11.90;99.90;;;;;;4952515;29;20239;-66
2024/02/15 07:23:42;;;;;;;0.30;0.30;;;12.00;99.90;;;;;;4944507;28;20180;-63
2024/02/15 07:26:08;;;;;;;0.50;0.50;;;12.20;99.90;;;;;;4937418;29;20446;-65
2024/02/15 07:28:34;;;;;;;0.30;0.30;;;12.30;99.90;;;;;;4954731;29;20203;-68
2024/02/15 07:31:02;;;;;;;0.40;0.40;;;12.40;99.90;;;;;;4953937;28;20250;-68
2024/02/15 07:33:28;;;;;;;0.30;0.30;;;12.60;99.90;;;;;;4956938;28;20419;-68
2024/02/15 07:35:54;;;;;;;0.30;0.30;;;12.80;99.90;;;;;;4973888;28;20521;-68
2024/02/15 07:38:22;;;;;;;0.30;0.20;;;13.10;99.90;;;;;;4964487;28;20459;-68
2024/02/15 07:40:48;;;;;;;0.30;0.30;;;13.30;99.90;;;;;;4962002;28;20466;-67
2024/02/15 07:43:14;;;;;;;0.40;0.40;;;13.50;99.90;;;;;;4951454;29;20428;-67
2024/02/15 07:45:40;;;;;;;0.53;0.53;;;13.60;99.90;;;;;;4952439;28;20468;-68
2024/02/15 07:48:06;;;;;;;0.30;0.30;;;13.80;99.90;;;;;;4943043;28;20465;-68
2024/02/15 07:50:32;;;;;;;0.70;0.70;;;13.80;99.90;;;;;;4935312;29;20420;-69
2024/02/15 07:52:57;;;;;;;0.30;0.30;;;13.90;99.90;;;;;;4934882;29;20453;-66
2024/02/15 07:55:24;;;;;;;0.50;0.47;;;14.00;99.90;;;;;;4935462;29;20194;-68
2024/02/15 07:57:53;;;;;;;0.67;0.40;;;14.20;99.90;;;;;;4941055;29;20216;-67
2024/02/15 08:00:19;;;;;;;0.30;0.30;;;14.50;99.90;;;;;;4953355;28;20598;-67
2024/02/15 08:02:45;;;;;;;0.40;0.40;;;14.80;99.90;;;;;;4944451;29;20451;-67
2024/02/15 08:05:12;;;;;;;0.30;0.30;;;15.20;99.90;;;;;;4941801;29;20821;-66
2024/02/15 08:07:41;;;;;;;0.30;0.30;;;15.50;99.90;;;;;;4948539;28;20502;-67
2024/02/15 08:10:13;;;;;;;0.30;0.20;;;15.70;99.90;;;;;;4960569;28;20508;-66
2024/02/15 08:12:43;;;;;;;0.30;0.30;;;15.80;99.90;;;;;;4959711;28;20450;-67
2024/02/15 08:15:11;;;;;;;0.30;0.20;;;15.70;99.90;;;;;;4957973;29;20751;-68
2024/02/15 08:17:48;;;;;;;0.50;0.50;;;15.90;99.90;;;;;;4943071;28;20413;-66
2024/02/15 08:20:14;;;;;;;0.30;0.30;;;16.30;99.90;;;;;;4957365;29;20494;-65
2024/02/15 08:22:40;;;;;;;0.30;0.30;;;16.90;99.90;;;;;;4958304;29;20779;-69
2024/02/15 08:25:10;;;;;;;0.30;0.30;;;17.40;99.90;;;;;;4956132;29;20427;-67
2024/02/15 08:27:42;;;;;;;0.30;0.30;;;18.00;99.90;;;;;;4957967;28;20755;-67
2024/02/15 08:30:12;;;;;;;0.30;0.20;;;18.60;99.90;;;;;;4957017;29;20483;-67
2024/02/15 08:32:39;;;;;;;0.30;0.30;;;18.90;99.00;;;;;;4955918;29;20416;-68
2024/02/15 08:35:06;;;;;;;0.30;0.20;;;19.20;98.50;;;;;;4957352;29;20389;-68
2024/02/15 08:37:34;;;;;;;0.30;0.20;;;19.30;97.30;;;;;;4940605;28;20467;-68
2024/02/15 08:40:01;;;;;;;0.30;0.30;;;19.20;97.20;;;;;;4950712;29;20425;-66
2024/02/15 08:42:26;;;;;;;0.30;0.20;;;18.90;97.40;;;;;;4949853;29;20403;-68
2024/02/15 08:44:52;;;;;;;0.30;0.20;;;18.70;97.50;;;;;;4956051;28;20455;-67
2024/02/15 08:47:17;;;;;;;0.30;0.30;;;18.60;98.10;;;;;;4955959;29;20247;-69
2024/02/15 08:49:43;;;;;;;0.30;0.20;;;18.60;97.70;;;;;;4957940;29;20182;-67
2024/02/15 08:52:09;;;;;;;0.30;0.30;;;18.60;97.90;;;;;;4958018;29;20177;-67
2024/02/15 08:54:34;;;;;;;0.30;0.30;;;18.60;97.90;;;;;;4951993;29;20184;-67
2024/02/15 08:57:01;;;;;;;0.30;0.30;;;18.80;98.10;;;;;;4956574;28;20213;-68
2024/02/15 08:59:28;;;;;;;0.30;0.30;;;19.00;97.50;;;;;;4921379;29;20187;-67
2024/02/15 09:01:55;;;;;;;0.30;0.30;;;19.10;97.00;;;;;;4939383;29;20465;-68
2024/02/15 09:04:23;;;;;;;0.30;0.30;;;19.20;96.90;;;;;;4937960;29;20426;-67
2024/02/15 09:06:49;;;;;;;0.30;0.30;;;19.10;97.00;;;;;;4938513;29;20437;-67
2024/02/15 09:09:14;;;;;;;0.30;0.20;;;19.00;96.90;;;;;;4949581;29;21597;-68
2024/02/15 09:11:40;;;;;;;0.30;0.20;;;19.00;97.10;;;;;;4945734;29;20185;-67
2024/02/15 09:14:06;;;;;;;0.30;0.20;;;18.90;97.10;;;;;;4938214;29;20179;-66
2024/02/15 09:16:33;;;;;;;0.30;0.30;;;18.90;97.40;;;;;;4937927;29;20922;-67
2024/02/15 09:19:00;;;;;;;0.30;0.20;;;19.10;97.10;;;;;;4921338;29;20665;-67
2024/02/15 09:21:28;;;;;;;0.30;0.20;;;19.10;97.10;;;;;;4937804;29;20461;-67
2024/02/15 09:23:53;;;;;;;0.30;0.30;;;19.30;96.60;;;;;;4948636;29;20487;-67
2024/02/15 09:26:19;;;;;;;0.30;0.20;;;19.40;96.30;;;;;;4939814;29;20971;-66
2024/02/15 09:28:45;;;;;;;0.30;0.20;;;19.50;96.60;;;;;;4938009;29;20174;-67
2024/02/15 09:31:13;;;;;;;0.30;0.20;;;19.70;96.60;;;;;;4937983;29;20878;-68
2024/02/15 09:33:39;;;;;;;0.30;0.20;;;20.10;96.20;;;;;;4948262;28;20275;-67
2024/02/15 09:36:06;;;;;;;0.30;0.20;;;20.40;95.50;;;;;;4956518;29;20464;-68
2024/02/15 09:38:31;;;;;;;0.30;0.20;;;20.80;94.50;;;;;;4939622;29;20430;-68
2024/02/15 09:40:57;;;;;;;0.30;0.20;;;21.10;94.90;;;;;;4949455;29;20501;-68
2024/02/15 09:43:26;;;;;;;0.30;0.30;;;21.50;93.90;;;;;;4956985;29;20187;-68
2024/02/15 09:45:52;;;;;;;0.30;0.20;;;21.90;93.50;;;;;;4954795;28;20288;-68
2024/02/15 09:48:18;;;;;;;0.30;0.30;;;22.40;93.20;;;;;;4938016;29;20437;-68
2024/02/15 09:50:48;;;;;;;0.30;0.30;;;22.90;91.60;;;;;;4956652;29;20543;-68
2024/02/15 09:53:15;;;;;;;0.30;0.30;;;23.20;91.70;;;;;;4939844;29;20248;-67
2024/02/15 09:55:41;;;;;;;0.30;0.20;;;23.70;91.00;;;;;;4944735;29;20502;-68
2024/02/15 09:58:09;;;;;;;0.30;0.30;;;24.30;89.20;;;;;;4956727;29;20413;-68
2024/02/15 10:00:35;;;;;;;0.30;0.30;;;24.50;88.50;;;;;;4956543;29;20546;-67
2024/02/15 10:03:02;;;;;;;0.50;0.33;;;24.60;87.30;;;;;;4956256;28;20486;-67
2024/02/15 10:05:28;;;;;;;0.30;0.20;;;24.70;86.40;;;;;;4952051;29;20412;-67
2024/02/15 10:07:53;;;;;;;0.30;0.20;;;24.90;85.50;;;;;;4937119;29;20413;-68
2024/02/15 10:10:21;;;;;;;0.30;0.30;;;25.10;84.50;;;;;;4939825;29;20196;-68
2024/02/15 10:12:56;;;;;;;0.70;0.30;;;25.10;84.10;;;;;;4939086;29;20271;-67
2024/02/15 10:15:32;;;;;;;0.30;0.20;;;24.80;83.40;;;;;;4955894;29;20444;-68
2024/02/15 10:17:58;;;;;;;0.30;0.20;;;24.40;83.40;;;;;;4954803;29;20451;-68
2024/02/15 10:20:25;;;;;;;0.30;0.20;;;24.20;83.80;;;;;;4941250;29;20460;-68
2024/02/15 10:22:57;;;;;;;0.30;0.20;;;24.20;84.70;;;;;;4956198;29;20922;-68
2024/02/15 10:25:26;;;;;;;0.30;0.20;;;24.20;84.60;;;;;;4953820;29;20411;-67
2024/02/15 10:28:08;;;;;;;0.50;0.50;;;24.50;84.40;;;;;;4937037;29;20409;-68
2024/02/15 10:30:38;;;;;;;0.30;0.20;;;24.50;83.10;;;;;;4919705;29;20420;-67
2024/02/15 10:33:05;;;;;;;0.40;0.30;;;24.40;83.00;;;;;;4936274;29;20407;-68
2024/02/15 10:35:34;;;;;;;0.30;0.30;;;24.40;83.00;;;;;;4950489;29;20448;-67
2024/02/15 10:38:09;;;;;;;0.30;0.20;;;24.50;83.10;;;;;;4955828;29;20467;-67
2024/02/15 10:40:35;;;;;;;0.30;0.20;;;24.50;81.70;;;;;;4955614;28;20470;-67
2024/02/15 10:43:04;;;;;;;0.30;0.20;;;24.40;81.60;;;;;;4955729;29;20371;-68
2024/02/15 10:45:36;;;;;;;0.83;0.40;;;24.40;82.00;;;;;;4938266;29;20421;-67
2024/02/15 10:48:04;;;;;;;0.30;0.20;;;24.40;81.80;;;;;;4955721;29;20424;-67
2024/02/15 10:50:30;;;;;;;0.30;0.30;;;24.30;80.80;;;;;;4937705;29;20411;-68
2024/02/15 10:52:59;;;;;;;0.30;0.20;;;24.00;81.60;;;;;;4954781;29;20513;-67
2024/02/15 10:55:32;;;;;;;0.30;0.20;;;23.80;81.80;;;;;;4929820;29;20205;-67
2024/02/15 10:58:03;;;;;;;0.30;0.30;;;23.60;82.00;;;;;;4936562;29;20736;-67
2024/02/15 11:00:31;;;;;;;0.30;0.20;;;23.60;81.10;;;;;;4950576;29;20551;-68
2024/02/15 11:03:06;;;;;;;0.30;0.30;;;23.50;81.60;;;;;;4955607;29;20408;-67
2024/02/15 11:05:34;;;;;;;0.30;0.30;;;23.50;82.60;;;;;;4955040;29;20486;-67
2024/02/15 11:08:05;;;;;;;0.30;0.30;;;23.50;81.00;;;;;;4937535;29;20399;-64
2024/02/15 11:10:31;;;;;;;0.30;0.20;;;23.30;82.10;;;;;;4953619;29;20448;-63
2024/02/15 11:12:58;;;;;;;0.30;0.20;;;23.20;82.00;;;;;;4951195;29;20452;-63
2024/02/15 11:15:45;;;;;;;0.30;0.20;;;23.20;81.40;;;;;;4935443;29;20418;-68
2024/02/15 11:18:11;;;;;;;0.30;0.30;;;22.90;81.40;;;;;;4936115;29;20437;-67
2024/02/15 11:20:36;;;;;;;0.30;0.30;;;22.60;82.20;;;;;;4935964;29;20849;-66
2024/02/15 11:23:04;;;;;;;0.30;0.30;;;22.30;83.50;;;;;;4919030;29;20510;-68
2024/02/15 11:25:34;;;;;;;0.30;0.30;;;22.20;85.10;;;;;;4936500;29;20198;-70
2024/02/15 11:28:22;;;;;;;0.30;0.20;;;21.90;83.90;;;;;;4941443;29;20421;-68
2024/02/15 11:30:51;;;;;;;0.30;0.30;;;21.40;84.10;;;;;;4954410;29;20399;-67
2024/02/15 11:33:29;;;;;;;0.30;0.30;;;21.00;85.10;;;;;;4955315;29;20408;-65
2024/02/15 11:36:05;;;;;;;0.30;0.30;;;20.50;86.20;;;;;;4954610;29;20801;-63
2024/02/15 11:38:31;;;;;;;0.30;0.20;;;20.00;87.60;;;;;;4954894;29;20493;-63
2024/02/15 11:40:57;;;;;;;0.30;0.20;;;19.70;88.50;;;;;;4955509;28;20892;-63
2024/02/15 11:44:01;;;;;;;0.30;0.20;;;19.40;89.30;;;;;;4976521;28;20207;-63
2024/02/15 11:46:30;;;;;;;0.30;0.20;;;19.20;90.60;;;;;;4968241;28;20853;-62
2024/02/15 11:48:56;;;;;;;0.30;0.20;;;19.00;91.00;;;;;;4961043;28;20436;-62
2024/02/15 11:51:27;;;;;;;0.30;0.30;;;18.80;91.30;;;;;;4961035;29;20496;-59
2024/02/15 11:54:03;;;;;;;0.30;0.27;;;18.50;92.10;;;;;;4951123;29;20441;-59
2024/02/15 11:56:33;;;;;;;0.30;0.20;;;18.40;92.20;;;;;;4941717;29;20479;-62
2024/02/15 11:59:06;;;;;;;0.30;0.30;;;18.30;92.40;;;;;;4942248;29;20413;-66
2024/02/15 12:21:03;;;;;;;0.30;0.30;;;18.20;93.70;;;;;;4931795;29;21034;-66
2024/02/15 12:23:33;;;;;;;0.30;0.30;;;18.20;93.40;;;;;;4961029;28;20878;-61
2024/02/15 12:25:59;;;;;;;0.30;0.20;;;18.20;93.50;;;;;;4959736;29;20520;-65
2024/02/15 12:28:25;;;;;;;0.30;0.30;;;18.20;93.70;;;;;;4960453;29;20428;-66
2024/02/15 12:30:57;;;;;;;0.30;0.20;;;18.30;93.80;;;;;;4960757;28;20424;-65
2024/02/15 12:33:23;;;;;;;0.33;0.33;;;18.30;93.80;;;;;;4943912;29;20196;-63
2024/02/15 12:35:50;;;;;;;0.30;0.20;;;18.30;93.30;;;;;;4960580;28;20783;-66
2024/02/15 12:38:16;;;;;;;0.30;0.30;;;18.30;93.20;;;;;;4960882;29;20412;-66
2024/02/15 12:40:44;;;;;;;0.30;0.20;;;18.20;93.10;;;;;;4952316;29;20602;-67
2024/02/15 12:43:10;;;;;;;0.30;0.30;;;18.20;93.20;;;;;;4959631;28;20452;-67
2024/02/15 12:45:37;;;;;;;0.30;0.30;;;18.20;93.40;;;;;;4944219;29;20523;-67
2024/02/15 12:48:05;;;;;;;0.30;0.30;;;18.30;93.00;;;;;;4944609;28;20938;-65
2024/02/15 12:50:32;;;;;;;0.30;0.20;;;18.20;93.10;;;;;;4946871;29;20423;-67
2024/02/15 12:53:05;;;;;;;0.30;0.20;;;18.20;93.70;;;;;;4941522;29;20890;-67
2024/02/15 12:55:34;;;;;;;0.30;0.30;;;18.20;93.60;;;;;;4941564;29;20843;-70
2024/02/15 12:58:20;;;;;;;0.30;0.30;;;18.30;93.30;;;;;;4957129;28;20434;-67
2024/02/15 13:00:46;;;;;;;0.30;0.20;;;18.30;93.00;;;;;;4940952;29;20473;-66
2024/02/15 13:03:15;;;;;;;0.30;0.30;;;18.30;93.20;;;;;;4940507;28;21007;-66
2024/02/15 13:05:41;;;;;;;0.30;0.30;;;18.30;93.00;;;;;;4938131;29;20555;-66
2024/02/15 13:08:12;;;;;;;0.30;0.20;;;18.40;92.70;;;;;;4952501;29;20823;-67
2024/02/15 13:10:39;;;;;;;0.30;0.20;;;18.40;92.80;;;;;;4942791;29;20532;-67
2024/02/15 13:13:05;;;;;;;0.30;0.20;;;18.50;93.10;;;;;;4921322;28;20416;-67
2024/02/15 13:15:32;;;;;;;0.30;0.30;;;18.60;93.00;;;;;;4939116;29;20455;-68
2024/02/15 13:17:59;;;;;;;0.30;0.30;;;18.70;92.20;;;;;;4957483;29;20412;-67
2024/02/15 13:20:35;;;;;;;0.30;0.30;;;18.80;92.30;;;;;;4957504;29;20464;-67
2024/02/15 13:23:08;;;;;;;0.33;0.33;;;18.80;92.10;;;;;;4957363;29;20775;-67
2024/02/15 13:25:39;;;;;;;0.40;0.33;;;18.80;92.00;;;;;;4955933;29;20468;-67
2024/02/15 13:28:05;;;;;;;0.30;0.20;;;18.80;91.80;;;;;;4957129;29;20898;-67
2024/02/15 13:30:32;;;;;;;0.30;0.20;;;18.70;91.90;;;;;;4957384;29;20452;-67
2024/02/15 13:32:58;;;;;;;0.30;0.30;;;18.70;92.20;;;;;;4957198;29;20432;-68
2024/02/15 13:35:23;;;;;;;0.30;0.30;;;18.70;92.00;;;;;;4956360;28;20448;-71
2024/02/15 13:37:52;;;;;;;0.30;0.30;;;18.60;92.30;;;;;;4957025;29;20180;-66
2024/02/15 13:40:19;;;;;;;0.30;0.30;;;18.60;92.20;;;;;;4948892;29;20186;-65
2024/02/15 13:42:52;;;;;;;0.30;0.30;;;18.60;92.10;;;;;;4944234;28;20436;-67
2024/02/15 13:45:19;;;;;;;0.30;0.30;;;18.50;92.10;;;;;;4953055;29;20744;-66
2024/02/15 13:47:47;;;;;;;0.30;0.30;;;18.40;92.20;;;;;;4956851;29;20499;-65
2024/02/15 13:50:14;;;;;;;0.30;0.20;;;18.40;92.70;;;;;;4943768;28;20418;-67
2024/02/15 13:52:43;;;;;;;0.30;0.30;;;18.40;92.90;;;;;;4938501;29;20424;-67
2024/02/15 13:55:16;;;;;;;0.30;0.30;;;18.50;92.30;;;;;;4940303;29;20512;-67
2024/02/15 13:57:43;;;;;;;0.30;0.20;;;18.50;92.50;;;;;;4945519;29;20420;-66
2024/02/15 14:00:21;;;;;;;0.30;0.20;;;18.60;92.90;;;;;;4956235;28;20403;-66
2024/02/15 14:02:50;;;;;;;0.30;0.30;;;18.70;92.80;;;;;;4956393;29;20538;-68
2024/02/15 14:05:19;;;;;;;0.30;0.30;;;18.80;92.90;;;;;;4955029;29;20448;-67
2024/02/15 14:07:55;;;;;;;0.30;0.30;;;18.80;92.50;;;;;;4954553;28;20749;-67
2024/02/15 14:10:21;;;;;;;0.30;0.20;;;18.80;92.70;;;;;;4937199;29;20441;-69
2024/02/15 14:13:11;;;;;;;0.30;0.30;;;18.70;92.80;;;;;;4937068;29;20423;-71
2024/02/15 14:15:38;;;;;;;0.33;0.33;;;18.80;93.20;;;;;;4940818;29;20411;-68
2024/02/15 14:18:10;;;;;;;0.30;0.30;;;18.80;93.50;;;;;;4956398;29;20772;-68
2024/02/15 14:20:37;;;;;;;0.30;0.30;;;18.90;93.50;;;;;;4953592;28;20477;-68
2024/02/15 14:23:05;;;;;;;0.30;0.30;;;18.90;93.40;;;;;;4950281;29;20851;-70
2024/02/15 14:25:32;;;;;;;0.30;0.20;;;19.00;93.00;;;;;;4936518;29;20415;-67
2024/02/15 14:28:00;;;;;;;0.30;0.20;;;18.90;92.60;;;;;;4953155;29;20524;-68
2024/02/15 14:33:15;;;;;;;0.30;0.30;;;19.00;92.40;;;;;;4942127;28;20407;-67
2024/02/15 14:35:42;;;;;;;0.37;0.37;;;19.00;92.30;;;;;;4950041;29;20418;-68
2024/02/15 14:38:15;;;;;;;0.30;0.30;;;18.90;92.20;;;;;;4955429;29;20424;-70
2024/02/15 14:40:44;;;;;;;0.30;0.30;;;18.80;92.20;;;;;;4955863;29;20546;-68
2024/02/15 14:43:12;;;;;;;0.30;0.30;;;18.80;92.30;;;;;;4955570;29;21053;-70
2024/02/15 14:45:42;;;;;;;0.30;0.20;;;18.80;92.20;;;;;;4938769;29;20418;-68
2024/02/15 14:48:09;;;;;;;0.50;0.50;;;18.70;92.20;;;;;;4955915;29;20415;-68
2024/02/15 14:50:36;;;;;;;0.30;0.30;;;18.60;92.20;;;;;;4955677;29;20501;-68
2024/02/15 14:53:02;;;;;;;0.30;0.20;;;18.60;92.50;;;;;;4922239;29;20424;-68
2024/02/15 14:55:30;;;;;;;0.77;0.77;;;18.50;92.80;;;;;;4922691;29;20419;-69
2024/02/15 14:57:56;;;;;;;0.30;0.20;;;18.40;92.80;;;;;;4881592;29;20433;-67
2024/02/15 15:00:23;;;;;;;0.30;0.30;;;18.40;93.10;;;;;;4918236;29;20496;-69
2024/02/15 15:02:49;;;;;;;0.30;0.30;;;18.30;93.00;;;;;;4934261;29;20177;-68
2024/02/15 15:13:34;;;;;;;0.30;0.20;;;18.00;93.10;;;;;;4935188;29;20772;-68
2024/02/15 15:16:00;;;;;;;0.30;0.30;;;18.00;93.20;;;;;;4935592;29;20429;-67
2024/02/15 15:18:27;;;;;;;0.30;0.30;;;17.90;93.40;;;;;;4936101;29;20428;-64
2024/02/15 15:20:57;;;;;;;0.30;0.20;;;17.90;93.40;;;;;;4936157;29;20460;-68
2024/02/15 15:23:22;;;;;;;0.30;0.20;;;17.90;93.90;;;;;;4936242;29;20418;-68
2024/02/15 15:25:48;;;;;;;0.30;0.20;;;17.90;93.80;;;;;;4937301;28;20437;-68
2024/02/15 15:28:14;;;;;;;0.30;0.20;;;17.90;93.90;;;;;;4966547;28;20177;-68
2024/02/15 15:30:40;;;;;;;0.30;0.30;;;17.90;94.20;;;;;;4954098;29;20180;-68
2024/02/15 15:33:09;;;;;;;0.30;0.30;;;17.90;94.40;;;;;;4955327;29;20232;-67
2024/02/15 15:35:37;;;;;;;0.30;0.30;;;17.80;94.40;;;;;;4937421;29;20444;-67
2024/02/15 15:38:04;;;;;;;0.30;0.30;;;17.80;94.80;;;;;;4955099;29;20463;-67
2024/02/15 15:40:31;;;;;;;0.30;0.20;;;17.70;94.80;;;;;;4890086;29;20472;-69
2024/02/15 15:42:57;;;;;;;0.30;0.30;;;17.70;95.00;;;;;;4954981;29;20432;-66
2024/02/15 15:45:23;;;;;;;0.30;0.20;;;17.60;95.10;;;;;;4920843;29;20834;-68
2024/02/15 15:47:49;;;;;;;0.30;0.30;;;17.60;95.20;;;;;;4955031;29;20208;-66
2024/02/15 15:50:16;;;;;;;0.30;0.30;;;17.50;95.30;;;;;;4954805;29;20450;-66
2024/02/15 15:52:44;;;;;;;0.30;0.30;;;17.40;95.60;;;;;;4954788;29;20181;-68
2024/02/15 15:55:13;;;;;;;0.30;0.20;;;17.40;95.70;;;;;;4953262;29;20424;-68
2024/02/15 15:57:39;;;;;;;0.30;0.20;;;17.30;96.00;;;;;;4929664;29;20477;-69
2024/02/15 16:00:12;;;;;;;0.30;0.30;;;17.20;96.20;;;;;;4935582;29;20410;-67
2024/02/15 16:02:39;;;;;;;0.30;0.30;;;17.10;96.50;;;;;;4935777;29;20472;-68
2024/02/15 16:05:12;;;;;;;0.30;0.30;;;17.00;96.80;;;;;;4938378;28;20472;-70
2024/02/15 16:07:40;;;;;;;0.30;0.30;;;16.90;96.80;;;;;;4913005;29;20437;-68
2024/02/15 16:10:10;;;;;;;0.30;0.30;;;16.90;97.00;;;;;;4949100;29;20433;-69
2024/02/15 16:12:38;;;;;;;0.30;0.30;;;16.80;97.10;;;;;;4946337;29;20502;-69
2024/02/15 16:15:08;;;;;;;0.30;0.20;;;16.70;97.30;;;;;;4942283;29;20439;-68
2024/02/15 16:17:39;;;;;;;0.30;0.30;;;16.60;97.50;;;;;;4942051;29;20550;-67
2024/02/15 16:20:10;;;;;;;0.30;0.27;;;16.50;97.70;;;;;;4942174;29;20418;-68
2024/02/15 16:22:37;;;;;;;0.30;0.23;;;16.50;97.90;;;;;;4940599;29;20427;-68
2024/02/15 16:25:05;;;;;;;0.30;0.30;;;16.40;98.00;;;;;;4922689;29;20420;-67
2024/02/15 16:27:40;;;;;;;0.30;0.20;;;16.40;98.30;;;;;;4926055;29;20534;-68
2024/02/15 16:30:13;;;;;;;0.30;0.20;;;16.30;98.40;;;;;;4943481;29;20411;-66
2024/02/15 16:32:42;;;;;;;0.30;0.20;;;16.20;98.50;;;;;;4942137;29;20423;-68
2024/02/15 16:35:12;;;;;;;0.43;0.43;;;16.10;98.70;;;;;;4938791;29;21036;-68
2024/02/15 16:37:42;;;;;;;0.30;0.20;;;16.00;98.90;;;;;;4939217;29;20399;-67
2024/02/15 16:40:11;;;;;;;0.30;0.30;;;16.00;99.10;;;;;;4939291;29;20402;-66
2024/02/15 16:42:43;;;;;;;0.30;0.30;;;15.90;99.30;;;;;;4907321;29;20759;-67
2024/02/15 16:45:11;;;;;;;0.30;0.30;;;15.80;99.50;;;;;;4949433;29;20442;-67
2024/02/15 16:47:38;;;;;;;0.30;0.30;;;15.70;99.60;;;;;;4941622;29;20416;-67
2024/02/15 16:50:09;;;;;;;0.40;0.33;;;15.70;99.80;;;;;;4942635;29;20420;-67
2024/02/15 16:52:38;;;;;;;0.30;0.30;;;15.60;99.90;;;;;;4949493;29;20412;-67
2024/02/15 16:55:08;;;;;;;0.30;0.30;;;15.60;99.90;;;;;;4947883;29;20762;-68
2024/02/15 16:57:36;;;;;;;0.30;0.30;;;15.50;99.90;;;;;;4943892;29;20421;-70
2024/02/15 17:00:06;;;;;;;0.30;0.30;;;15.40;99.90;;;;;;4944934;29;20402;-67
2024/02/15 17:02:33;;;;;;;0.30;0.20;;;15.30;99.90;;;;;;4941989;29;20476;-67
2024/02/15 17:05:00;;;;;;;3.90;0.67;;;15.30;99.90;;;;;;4942767;29;20441;-66
2024/02/15 17:07:25;;;;;;;0.30;0.30;;;15.20;99.90;;;;;;4920058;29;20442;-67
2024/02/15 17:09:52;;;;;;;0.30;0.30;;;15.10;99.90;;;;;;4917193;29;20505;-66
2024/02/15 17:12:18;;;;;;;0.30;0.30;;;15.00;99.90;;;;;;4917375;29;20198;-68
2024/02/15 17:14:44;;;;;;;0.47;0.47;;;15.00;99.90;;;;;;4917086;29;20483;-68
2024/02/15 17:17:09;;;;;;;0.30;0.30;;;14.90;99.90;;;;;;4901568;29;20524;-67
2024/02/15 17:19:35;;;;;;;0.30;0.30;;;14.80;99.90;;;;;;4918440;29;20186;-65
2024/02/15 17:22:06;;;;;;;0.30;0.20;;;14.70;99.90;;;;;;4919115;29;20269;-67
2024/02/15 17:24:32;;;;;;;0.37;0.37;;;14.70;99.90;;;;;;4919400;29;20205;-68
2024/02/15 17:26:58;;;;;;;0.30;0.30;;;14.70;99.90;;;;;;4919086;29;20495;-70
2024/02/15 17:29:24;;;;;;;0.30;0.30;;;14.70;99.90;;;;;;4871093;29;20498;-68
2024/02/15 17:31:51;;;;;;;0.30;0.30;;;14.60;99.90;;;;;;4901296;29;20863;-69
2024/02/15 17:34:17;;;;;;;0.30;0.30;;;14.60;99.90;;;;;;4900647;29;20217;-67
2024/02/15 17:36:44;;;;;;;0.30;0.30;;;14.60;99.90;;;;;;4916545;29;20473;-68
2024/02/15 17:39:09;;;;;;;0.30;0.20;;;14.50;99.90;;;;;;4933770;29;20488;-71
2024/02/15 17:41:38;;;;;;;0.30;0.20;;;14.50;99.90;;;;;;4937392;29;20571;-66
2024/02/15 17:44:04;;;;;;;0.30;0.30;;;14.50;99.90;;;;;;4937951;29;20417;-69
2024/02/15 17:46:31;;;;;;;0.30;0.30;;;14.50;99.90;;;;;;4937431;29;20426;-69
2024/02/15 17:49:01;;;;;;;0.30;0.30;;;14.40;99.90;;;;;;4937170;29;20486;-71
2024/02/15 17:51:31;;;;;;;0.40;0.40;;;14.40;99.90;;;;;;4936724;29;20413;-69
2024/02/15 17:53:57;;;;;;;0.30;0.30;;;14.40;99.90;;;;;;4937571;29;20953;-70
2024/02/15 17:56:25;;;;;;;0.30;0.30;;;14.30;99.90;;;;;;4936927;29;20518;-69
2024/02/15 17:58:51;;;;;;;0.30;0.20;;;14.30;99.90;;;;;;4937211;29;20421;-69
2024/02/15 18:01:17;;;;;;;0.67;0.67;;;14.30;99.90;;;;;;4920026;29;20456;-70
2024/02/15 18:03:43;;;;;;;0.67;0.67;;;14.30;99.90;;;;;;4935839;29;20414;-70
2024/02/15 18:06:10;;;;;;;0.30;0.30;;;14.20;99.90;;;;;;4936715;29;20489;-69
2024/02/15 18:08:36;;;;;;;0.30;0.20;;;14.20;99.90;;;;;;4951276;29;20955;-69
2024/02/15 18:11:04;;;;;;;0.30;0.30;;;14.20;99.90;;;;;;4919987;29;20422;-69
2024/02/15 18:13:30;;;;;;;0.30;0.30;;;14.20;99.90;;;;;;4950622;28;20472;-69
2024/02/15 18:15:56;;;;;;;0.30;0.30;;;14.20;99.90;;;;;;4955540;29;20973;-69
2024/02/15 18:18:23;;;;;;;0.30;0.30;;;14.10;99.90;;;;;;4956282;29;20405;-69
2024/02/15 18:20:49;;;;;;;0.30;0.30;;;14.10;99.90;;;;;;4954266;29;20456;-68
2024/02/15 18:23:18;;;;;;;0.40;0.40;;;14.10;99.90;;;;;;4936838;29;20428;-72
2024/02/15 18:25:47;;;;;;;0.30;0.20;;;14.00;99.90;;;;;;4936843;29;20433;-71
2024/02/15 18:28:14;;;;;;;0.30;0.30;;;14.00;99.90;;;;;;4946168;29;20519;-71
2024/02/15 18:30:43;;;;;;;0.30;0.30;;;14.00;99.90;;;;;;4937880;29;20435;-70
2024/02/15 18:33:10;;;;;;;0.30;0.30;;;13.90;99.90;;;;;;4956025;29;20738;-69
2024/02/15 18:35:41;;;;;;;0.30;0.30;;;13.90;99.90;;;;;;4937884;29;20993;-70
2024/02/15 18:38:07;;;;;;;0.30;0.30;;;13.80;99.90;;;;;;4956147;29;20455;-71
2024/02/15 18:40:37;;;;;;;0.30;0.30;;;13.80;99.90;;;;;;4955296;28;20757;-70
2024/02/15 18:43:03;;;;;;;0.30;0.30;;;13.70;99.90;;;;;;4955820;29;20925;-70